Time;durP1;ratioP1;P1;durP2;ratioP2;P2;SDS_P1;SDS_P2;PMS_P1;PMS_P2;Temp;Humidity;BMP_temperature;BMP_pressure;BME280_temperature;BME280_humidity;BME280_pressure;Samples;Min_cycle;Max_cycle;Signal;HPM_P1;HPM_P2
2021/05/23 00:01:05;;;;;;;2.63;1.00;;;12.40;86.10;;;;;;8312441;28;20458;-75
2021/05/23 00:05:09;;;;;;;1.00;0.83;;;12.40;86.00;;;;;;8315023;28;20430;-75
2021/05/23 00:09:10;;;;;;;1.43;1.37;;;12.40;86.00;;;;;;8311581;28;20454;-75
2021/05/23 00:13:12;;;;;;;1.10;1.00;;;12.50;86.00;;;;;;8311226;28;20529;-75
2021/05/23 00:17:13;;;;;;;1.33;1.23;;;12.50;86.10;;;;;;8306133;28;20184;-76
2021/05/23 00:21:16;;;;;;;2.07;1.00;;;12.50;86.00;;;;;;8311888;28;20493;-74
2021/05/23 00:25:23;;;;;;;2.63;1.03;;;12.50;86.10;;;;;;8316590;28;20187;-75
2021/05/23 00:29:23;;;;;;;2.20;1.53;;;12.60;86.50;;;;;;8320201;28;20473;-76
2021/05/23 00:33:24;;;;;;;1.63;1.33;;;12.60;86.70;;;;;;8325578;28;20522;-76
2021/05/23 00:37:27;;;;;;;3.40;1.20;;;12.60;86.70;;;;;;8320618;28;20184;-75
2021/05/23 00:41:28;;;;;;;1.57;1.47;;;12.50;87.00;;;;;;8313535;28;20216;-75
2021/05/23 00:45:29;;;;;;;1.10;1.10;;;12.50;87.30;;;;;;8315264;28;20530;-75
2021/05/23 00:49:29;;;;;;;2.07;1.10;;;12.50;87.40;;;;;;8310281;28;20215;-75
2021/05/23 00:53:30;;;;;;;1.80;1.10;;;12.40;87.50;;;;;;8322963;28;20192;-75
2021/05/23 00:57:32;;;;;;;2.50;1.00;;;12.40;87.70;;;;;;8312347;28;20207;-75
2021/05/23 01:01:45;;;;;;;3.23;1.20;;;12.40;88.00;;;;;;8329278;28;20478;-73
2021/05/23 01:05:46;;;;;;;1.70;1.30;;;12.30;88.40;;;;;;8329645;28;20477;-73
2021/05/23 01:09:47;;;;;;;2.93;1.50;;;12.20;88.70;;;;;;8316302;28;20441;-74
2021/05/23 01:13:56;;;;;;;2.03;1.03;;;12.20;89.10;;;;;;8327340;28;20445;-74
2021/05/23 01:18:22;;;;;;;1.67;1.10;;;12.20;89.10;;;;;;8313254;28;20208;-74
2021/05/23 01:22:36;;;;;;;2.17;1.20;;;12.20;89.50;;;;;;8311194;28;20850;-73
2021/05/23 01:26:43;;;;;;;1.93;1.70;;;12.20;89.70;;;;;;8332675;28;20429;-72
2021/05/23 01:30:46;;;;;;;2.53;1.27;;;12.20;89.80;;;;;;8306551;28;20496;-73
2021/05/23 01:34:47;;;;;;;2.90;1.10;;;12.20;90.00;;;;;;8330689;28;20457;-72
2021/05/23 01:38:49;;;;;;;4.73;2.00;;;12.20;90.10;;;;;;8321826;28;20477;-73
2021/05/23 01:42:50;;;;;;;2.80;1.57;;;12.10;90.20;;;;;;8307722;28;20188;-73
2021/05/23 01:46:51;;;;;;;2.13;1.70;;;12.10;90.30;;;;;;8308238;28;20445;-73
2021/05/23 01:50:51;;;;;;;5.63;3.70;;;12.10;90.40;;;;;;8324888;28;20929;-73
2021/05/23 01:54:52;;;;;;;2.77;1.50;;;12.10;90.40;;;;;;8305242;28;20438;-73
2021/05/23 01:58:53;;;;;;;1.47;1.30;;;12.20;90.40;;;;;;8306350;28;20207;-72
2021/05/23 02:02:54;;;;;;;1.50;1.40;;;12.20;90.30;;;;;;8324517;28;20449;-72
2021/05/23 02:06:57;;;;;;;1.43;1.30;;;12.30;90.30;;;;;;8310389;28;20171;-72
2021/05/23 02:11:04;;;;;;;2.03;1.10;;;12.20;90.50;;;;;;8323131;28;20447;-73
2021/05/23 02:15:06;;;;;;;5.20;2.20;;;12.10;90.30;;;;;;8320711;28;20418;-73
2021/05/23 02:19:09;;;;;;;5.90;2.70;;;12.10;90.50;;;;;;8320889;28;21017;-73
2021/05/23 02:23:19;;;;;;;2.43;1.60;;;12.00;90.80;;;;;;8324267;28;20426;-73
2021/05/23 02:27:20;;;;;;;1.70;1.60;;;12.00;90.70;;;;;;8320572;28;20442;-72
2021/05/23 02:31:21;;;;;;;2.70;1.30;;;11.90;90.80;;;;;;8305066;28;20438;-73
2021/05/23 02:35:28;;;;;;;1.87;1.77;;;11.90;90.80;;;;;;8326276;28;20191;-73
2021/05/23 02:39:29;;;;;;;6.63;1.90;;;11.90;90.90;;;;;;8318365;28;20635;-72
2021/05/23 02:43:31;;;;;;;1.97;1.87;;;11.90;91.00;;;;;;8314608;28;20465;-72
2021/05/23 02:47:31;;;;;;;8.90;1.87;;;11.90;91.20;;;;;;8337523;28;20191;-73
2021/05/23 02:51:32;;;;;;;3.63;1.87;;;11.90;91.20;;;;;;8336211;28;20533;-73
2021/05/23 02:55:35;;;;;;;2.13;1.97;;;11.90;91.20;;;;;;8331549;28;20270;-72
2021/05/23 02:59:35;;;;;;;2.10;1.97;;;12.00;91.20;;;;;;8315103;28;20196;-73
2021/05/23 03:03:36;;;;;;;2.20;1.80;;;12.10;91.00;;;;;;8329128;28;20437;-73
2021/05/23 03:07:39;;;;;;;5.07;2.00;;;12.20;91.00;;;;;;8335858;28;20186;-73
2021/05/23 03:11:40;;;;;;;2.00;1.60;;;12.30;90.90;;;;;;8332412;28;20191;-73
2021/05/23 03:15:41;;;;;;;1.83;1.43;;;12.30;90.70;;;;;;8315758;28;20501;-72
2021/05/23 03:19:42;;;;;;;1.50;1.40;;;12.40;90.60;;;;;;8325159;28;20203;-73
2021/05/23 03:23:45;;;;;;;2.70;1.90;;;12.40;90.50;;;;;;8335175;28;20525;-73
2021/05/23 03:27:46;;;;;;;2.83;2.40;;;12.50;90.50;;;;;;8338970;28;20190;-73
2021/05/23 03:31:46;;;;;;;2.50;1.90;;;12.60;90.50;;;;;;8312656;28;20435;-73
2021/05/23 03:35:49;;;;;;;3.57;2.10;;;12.60;90.20;;;;;;8312270;28;20173;-73
2021/05/23 03:39:50;;;;;;;5.40;1.80;;;12.70;90.20;;;;;;8335248;28;20235;-73
2021/05/23 03:43:50;;;;;;;3.00;1.70;;;12.70;90.30;;;;;;8333405;28;20497;-74
2021/05/23 03:47:51;;;;;;;2.40;2.10;;;12.70;90.30;;;;;;8329349;28;20737;-73
2021/05/23 03:51:52;;;;;;;3.53;2.40;;;12.80;90.40;;;;;;8311874;28;20672;-74
2021/05/23 03:55:52;;;;;;;2.43;2.23;;;12.80;90.60;;;;;;8313210;28;20183;-74
2021/05/23 03:59:53;;;;;;;3.00;2.27;;;12.90;90.50;;;;;;8328725;28;20463;-74
2021/05/23 04:03:58;;;;;;;3.13;2.60;;;12.90;90.50;;;;;;8328669;28;20188;-74
2021/05/23 04:07:59;;;;;;;4.90;2.47;;;12.90;90.70;;;;;;8312622;28;20218;-74
2021/05/23 04:12:00;;;;;;;3.93;2.60;;;12.90;90.90;;;;;;8311054;28;20442;-73
2021/05/23 04:16:00;;;;;;;4.67;2.47;;;12.90;91.20;;;;;;8332024;28;20437;-74
2021/05/23 04:20:03;;;;;;;3.03;2.53;;;12.90;91.20;;;;;;8319761;28;20204;-74
2021/05/23 04:24:04;;;;;;;5.40;2.50;;;12.90;91.20;;;;;;8335159;28;20263;-74
2021/05/23 04:28:04;;;;;;;4.43;2.40;;;12.90;91.40;;;;;;8304977;28;20453;-73
2021/05/23 04:32:06;;;;;;;2.30;2.20;;;12.90;91.30;;;;;;8323418;28;20182;-74
2021/05/23 04:36:07;;;;;;;3.20;2.30;;;12.90;91.30;;;;;;8312175;28;20210;-74
2021/05/23 04:40:09;;;;;;;2.23;2.13;;;13.00;91.00;;;;;;8307752;28;20463;-74
2021/05/23 04:44:09;;;;;;;3.37;2.43;;;13.00;91.30;;;;;;8329578;28;20707;-74
2021/05/23 04:48:13;;;;;;;2.50;2.33;;;13.00;91.30;;;;;;8311792;28;20994;-74
2021/05/23 04:52:14;;;;;;;3.80;2.30;;;13.00;91.40;;;;;;8325938;28;20208;-74
2021/05/23 04:56:15;;;;;;;2.20;2.00;;;13.00;91.60;;;;;;8329357;28;20443;-73
2021/05/23 05:00:16;;;;;;;2.10;1.90;;;12.90;91.40;;;;;;8300764;28;20466;-74
2021/05/23 05:04:17;;;;;;;2.50;2.30;;;13.00;91.50;;;;;;8310275;28;20188;-74
2021/05/23 05:08:17;;;;;;;2.30;1.77;;;13.00;91.30;;;;;;8304028;28;20497;-74
2021/05/23 05:12:20;;;;;;;4.00;2.50;;;13.00;91.40;;;;;;8329820;28;20188;-73
2021/05/23 05:16:20;;;;;;;2.10;1.93;;;13.00;90.80;;;;;;8328442;28;20180;-74
2021/05/23 05:20:21;;;;;;;2.73;2.53;;;13.00;89.50;;;;;;8308219;28;20462;-74
2021/05/23 05:24:22;;;;;;;5.33;2.33;;;12.90;88.70;;;;;;8307490;28;20180;-74
2021/05/23 05:28:22;;;;;;;6.93;2.30;;;12.90;86.50;;;;;;8326057;28;20180;-74
2021/05/23 05:32:23;;;;;;;3.90;1.50;;;13.00;85.60;;;;;;8304729;28;20191;-73
2021/05/23 05:36:24;;;;;;;2.50;1.60;;;13.00;84.50;;;;;;8318505;28;20207;-76
2021/05/23 05:40:25;;;;;;;4.33;1.70;;;13.00;84.00;;;;;;8322174;28;20196;-74
2021/05/23 05:44:26;;;;;;;3.10;1.77;;;13.10;81.90;;;;;;8306118;28;20438;-74
2021/05/23 05:48:26;;;;;;;4.40;2.00;;;13.10;82.70;;;;;;8323532;28;20215;-73
2021/05/23 05:52:27;;;;;;;4.53;2.47;;;13.20;80.80;;;;;;8308370;28;20230;-74
2021/05/23 05:56:27;;;;;;;1.73;1.10;;;13.30;78.50;;;;;;8320655;28;20595;-74
2021/05/23 06:00:30;;;;;;;3.83;1.50;;;13.40;77.40;;;;;;8307769;28;20217;-74
2021/05/23 06:04:30;;;;;;;4.73;2.23;;;13.50;77.60;;;;;;8308830;28;20276;-72
2021/05/23 06:08:31;;;;;;;16.53;2.60;;;13.60;76.60;;;;;;8305212;28;20438;-73
2021/05/23 06:12:32;;;;;;;7.93;1.63;;;13.70;77.80;;;;;;8317266;28;20188;-73
2021/05/23 06:16:32;;;;;;;5.23;1.77;;;13.90;78.00;;;;;;8322306;28;20212;-74
2021/05/23 06:20:35;;;;;;;3.37;1.63;;;14.10;76.80;;;;;;8307700;28;20205;-73
2021/05/23 06:24:38;;;;;;;3.77;1.60;;;14.30;76.20;;;;;;8320611;28;21032;-74
2021/05/23 06:28:44;;;;;;;2.23;1.87;;;14.60;75.70;;;;;;8302194;28;20447;-74
2021/05/23 06:32:45;;;;;;;6.03;1.77;;;14.80;73.30;;;;;;8325340;28;20446;-74
2021/05/23 06:36:46;;;;;;;1.53;1.43;;;15.00;73.50;;;;;;8304921;28;20447;-74
2021/05/23 06:40:46;;;;;;;2.27;1.43;;;15.20;71.80;;;;;;8290952;28;20203;-72
2021/05/23 06:44:47;;;;;;;3.47;2.50;;;15.40;72.30;;;;;;8305304;28;20693;-73
2021/05/23 06:48:48;;;;;;;5.27;1.80;;;15.60;70.60;;;;;;8301064;28;20710;-73
2021/05/23 06:52:49;;;;;;;5.93;1.60;;;15.70;69.70;;;;;;8306434;28;20190;-72
2021/05/23 06:56:51;;;;;;;2.50;1.40;;;15.80;69.20;;;;;;8324693;28;20190;-74
2021/05/23 07:00:52;;;;;;;2.00;1.33;;;16.10;68.70;;;;;;8318312;28;20652;-74
2021/05/23 07:04:53;;;;;;;3.97;1.83;;;16.30;67.70;;;;;;8318311;28;20907;-74
2021/05/23 07:08:53;;;;;;;3.10;1.70;;;16.50;67.70;;;;;;8301740;28;20274;-73
2021/05/23 07:12:54;;;;;;;4.07;1.73;;;16.70;65.70;;;;;;8320793;28;20186;-74
2021/05/23 07:16:55;;;;;;;7.13;2.13;;;16.80;64.80;;;;;;8309550;28;20275;-73
2021/05/23 07:20:59;;;;;;;3.63;1.60;;;16.80;63.90;;;;;;8302166;28;20207;-74
2021/05/23 07:24:59;;;;;;;7.87;1.60;;;16.80;63.60;;;;;;8325773;28;20287;-73
2021/05/23 07:29:00;;;;;;;2.53;1.83;;;16.90;61.00;;;;;;8313069;28;20438;-72
2021/05/23 07:33:01;;;;;;;6.63;1.30;;;17.00;62.80;;;;;;8309852;28;20208;-74
2021/05/23 07:37:02;;;;;;;6.20;1.93;;;17.20;62.10;;;;;;8308970;28;20172;-74
2021/05/23 07:41:07;;;;;;;3.43;1.40;;;17.30;62.80;;;;;;8313858;28;20474;-72
2021/05/23 07:45:08;;;;;;;2.53;1.30;;;17.30;60.80;;;;;;8318707;28;20183;-73
2021/05/23 07:49:09;;;;;;;2.77;1.43;;;17.20;59.50;;;;;;8308046;28;21089;-73
2021/05/23 07:53:09;;;;;;;2.43;1.20;;;17.30;60.10;;;;;;8297042;28;20519;-74
2021/05/23 07:57:10;;;;;;;5.67;1.30;;;17.50;59.70;;;;;;8341271;28;20187;-73
2021/05/23 08:01:13;;;;;;;2.30;1.37;;;17.70;57.30;;;;;;8328265;28;20215;-75
2021/05/23 08:05:17;;;;;;;2.80;1.30;;;17.80;56.30;;;;;;8317982;28;20427;-74
2021/05/23 08:09:19;;;;;;;8.80;1.83;;;17.90;56.00;;;;;;8329335;28;20523;-73
2021/05/23 08:13:20;;;;;;;3.20;1.30;;;18.00;56.40;;;;;;8330404;28;20445;-74
2021/05/23 08:17:23;;;;;;;4.90;1.20;;;18.10;54.20;;;;;;8328545;28;20499;-74
2021/05/23 08:21:24;;;;;;;1.10;1.00;;;18.20;53.10;;;;;;8310268;28;20207;-74
2021/05/23 08:25:25;;;;;;;2.53;1.30;;;18.30;53.40;;;;;;8331794;28;20479;-75
2021/05/23 08:29:28;;;;;;;1.20;1.00;;;18.70;53.20;;;;;;8328597;28;20245;-73
2021/05/23 08:33:30;;;;;;;2.70;1.70;;;18.90;52.50;;;;;;8306531;28;20594;-74
2021/05/23 08:37:33;;;;;;;8.73;1.50;;;19.20;54.10;;;;;;8325086;28;20806;-73
2021/05/23 08:41:34;;;;;;;2.57;1.17;;;19.40;51.60;;;;;;8308243;28;20818;-74
2021/05/23 08:45:35;;;;;;;1.20;1.10;;;19.70;52.50;;;;;;8310316;28;20832;-73
2021/05/23 08:49:36;;;;;;;1.47;1.37;;;20.20;51.60;;;;;;8326260;28;20299;-75
2021/05/23 08:53:37;;;;;;;4.70;1.63;;;20.20;51.80;;;;;;8320662;28;20442;-75
2021/05/23 09:02:35;;;;;;;1.93;1.20;;;19.40;51.20;;;;;;8323964;28;20223;-77
2021/05/23 09:06:37;;;;;;;4.07;1.70;;;19.50;52.70;;;;;;8308182;28;20451;-76
2021/05/23 09:10:38;;;;;;;3.13;1.80;;;19.90;50.60;;;;;;8312552;28;20265;-75
2021/05/23 09:14:46;;;;;;;6.47;1.70;;;20.00;50.00;;;;;;8309775;28;20493;-77
2021/05/23 09:18:56;;;;;;;5.07;2.27;;;19.60;50.10;;;;;;8321959;28;20812;-76
2021/05/23 09:22:58;;;;;;;1.80;1.20;;;19.50;51.20;;;;;;8328088;28;20500;-75
2021/05/23 09:27:04;;;;;;;8.17;2.27;;;19.20;51.00;;;;;;8308101;28;20435;-75
2021/05/23 09:31:18;;;;;;;2.13;1.70;;;19.30;52.20;;;;;;8322012;28;20999;-76
2021/05/23 09:35:20;;;;;;;1.60;1.50;;;19.40;51.50;;;;;;8320517;28;20453;-76
2021/05/23 09:39:38;;;;;;;1.77;1.67;;;19.10;51.50;;;;;;8304085;28;20557;-77
2021/05/23 09:43:38;;;;;;;1.77;1.67;;;18.90;52.70;;;;;;8305558;28;20443;-76
2021/05/23 09:47:52;;;;;;;6.33;1.87;;;19.10;53.60;;;;;;8305775;28;20587;-76
2021/05/23 09:51:57;;;;;;;4.33;1.70;;;19.30;51.60;;;;;;8320851;28;20300;-76
2021/05/23 09:56:02;;;;;;;3.13;2.23;;;19.60;51.00;;;;;;8310539;28;20446;-75
2021/05/23 10:00:08;;;;;;;8.33;1.80;;;19.60;51.10;;;;;;8297968;28;20556;-76
2021/05/23 10:04:25;;;;;;;4.40;3.10;;;20.00;51.40;;;;;;8317981;28;20535;-76
2021/05/23 10:08:27;;;;;;;3.73;2.10;;;20.70;51.20;;;;;;8299426;28;20504;-76
2021/05/23 10:12:27;;;;;;;8.43;1.57;;;21.40;49.80;;;;;;8315578;28;20461;-75
2021/05/23 10:16:28;;;;;;;2.50;2.10;;;21.90;47.50;;;;;;8311484;28;20442;-76
2021/05/23 10:20:30;;;;;;;5.47;2.43;;;21.30;47.50;;;;;;8302759;28;20213;-76
2021/05/23 10:24:38;;;;;;;2.90;2.30;;;20.40;48.60;;;;;;8303537;28;20178;-75
2021/05/23 10:28:45;;;;;;;2.03;1.83;;;19.60;49.90;;;;;;8300325;28;20835;-75
2021/05/23 10:32:47;;;;;;;2.57;1.77;;;19.50;51.10;;;;;;8313361;28;20413;-75
2021/05/23 10:36:47;;;;;;;2.77;1.90;;;19.60;51.20;;;;;;8301693;28;20443;-77
2021/05/23 10:40:53;;;;;;;5.17;1.70;;;20.50;49.90;;;;;;8302031;28;20465;-76
2021/05/23 10:44:56;;;;;;;3.77;1.40;;;21.10;49.70;;;;;;8300571;28;20188;-76
2021/05/23 10:49:03;;;;;;;6.20;1.77;;;21.10;48.20;;;;;;8299972;28;20477;-76
2021/05/23 10:53:05;;;;;;;1.13;1.03;;;20.90;48.80;;;;;;8297057;28;20416;-76
2021/05/23 10:57:06;;;;;;;1.83;1.23;;;21.10;47.90;;;;;;8300364;28;20441;-76
2021/05/23 11:01:07;;;;;;;2.50;1.23;;;21.20;46.30;;;;;;8323706;28;20524;-74
2021/05/23 11:05:16;;;;;;;6.23;1.77;;;21.00;46.40;;;;;;8314110;28;20633;-76
2021/05/23 11:09:34;;;;;;;3.47;1.30;;;21.00;46.30;;;;;;8301525;28;20419;-76
2021/05/23 11:13:37;;;;;;;4.93;1.40;;;20.80;46.60;;;;;;8310492;28;20416;-76
2021/05/23 11:17:40;;;;;;;4.33;1.53;;;20.80;47.30;;;;;;8303371;28;20469;-76
2021/05/23 11:21:43;;;;;;;1.33;1.23;;;21.20;47.70;;;;;;8310764;28;20520;-76
2021/05/23 11:25:48;;;;;;;1.40;1.10;;;21.10;47.60;;;;;;8305026;28;20408;-75
2021/05/23 11:29:53;;;;;;;4.73;2.37;;;20.70;46.50;;;;;;8307775;28;20453;-74
2021/05/23 11:33:54;;;;;;;3.97;1.37;;;20.30;47.30;;;;;;8306642;28;22290;-76
2021/05/23 11:37:57;;;;;;;3.33;1.37;;;19.90;49.40;;;;;;8323903;28;20800;-77
2021/05/23 11:41:58;;;;;;;3.43;2.10;;;19.60;49.80;;;;;;8325220;28;20208;-75
2021/05/23 11:46:04;;;;;;;3.03;1.40;;;19.40;50.30;;;;;;8299818;28;20442;-76
2021/05/23 11:50:05;;;;;;;7.87;1.60;;;20.00;50.70;;;;;;8317782;28;20482;-76
2021/05/23 11:54:06;;;;;;;4.83;1.40;;;20.90;49.10;;;;;;8312039;28;20472;-75
2021/05/23 11:58:12;;;;;;;1.53;1.27;;;21.00;47.30;;;;;;8315623;28;20436;-75
2021/05/23 12:02:12;;;;;;;1.50;1.10;;;20.70;47.50;;;;;;8302135;28;20275;-75
2021/05/23 12:06:17;;;;;;;4.63;1.70;;;20.30;47.50;;;;;;8305002;28;20421;-76
2021/05/23 12:10:23;;;;;;;2.97;1.10;;;20.20;48.70;;;;;;8302553;28;20221;-76
2021/05/23 12:14:32;;;;;;;2.20;1.00;;;20.80;48.60;;;;;;8320966;28;20449;-76
2021/05/23 12:18:38;;;;;;;3.53;1.37;;;21.90;47.60;;;;;;8320973;28;20484;-76
2021/05/23 12:22:39;;;;;;;1.67;1.03;;;22.20;45.70;;;;;;8320454;28;20450;-75
2021/05/23 12:26:41;;;;;;;2.10;1.37;;;21.70;44.10;;;;;;8321818;28;20433;-76
2021/05/23 12:30:42;;;;;;;12.70;1.57;;;21.10;45.20;;;;;;8308012;28;20818;-78
2021/05/23 12:34:43;;;;;;;2.77;1.00;;;20.80;46.70;;;;;;8309015;28;20976;-77
2021/05/23 12:39:07;;;;;;;2.10;1.83;;;20.90;47.30;;;;;;8333323;28;20962;-77
2021/05/23 12:43:26;;;;;;;3.03;1.30;;;21.10;46.90;;;;;;8305090;28;20309;-75
2021/05/23 12:47:26;;;;;;;2.90;1.27;;;21.30;45.10;;;;;;8302351;28;20867;-76
2021/05/23 12:51:28;;;;;;;1.97;1.70;;;21.30;45.70;;;;;;8306796;28;20940;-76
2021/05/23 12:55:30;;;;;;;2.40;1.27;;;21.00;46.00;;;;;;8333037;28;20188;-76
2021/05/23 12:59:42;;;;;;;2.20;1.10;;;21.00;47.50;;;;;;8305242;28;20543;-75
2021/05/23 13:03:49;;;;;;;4.00;1.13;;;21.30;48.20;;;;;;8321682;28;21732;-76
2021/05/23 13:07:50;;;;;;;3.23;1.90;;;21.90;48.00;;;;;;8307905;28;20412;-75
2021/05/23 13:11:57;;;;;;;2.97;1.03;;;22.20;46.20;;;;;;8320491;28;20444;-75
2021/05/23 13:16:05;;;;;;;1.87;0.90;;;22.50;45.10;;;;;;8331484;28;20183;-76
2021/05/23 13:20:07;;;;;;;1.50;1.40;;;22.10;44.30;;;;;;8309073;28;20463;-75
2021/05/23 13:24:08;;;;;;;2.10;1.30;;;21.50;45.00;;;;;;8305760;28;20440;-75
2021/05/23 13:28:11;;;;;;;1.47;1.37;;;20.90;47.20;;;;;;8308213;28;20819;-75
2021/05/23 13:32:12;;;;;;;10.40;2.00;;;20.50;47.80;;;;;;8310659;28;20467;-75
2021/05/23 13:36:14;;;;;;;2.70;1.30;;;20.30;48.30;;;;;;8308264;28;20461;-76
2021/05/23 13:40:18;;;;;;;2.27;1.53;;;20.80;49.20;;;;;;8310986;28;20531;-77
2021/05/23 13:44:19;;;;;;;2.13;1.00;;;21.70;46.90;;;;;;8312117;28;20441;-76
2021/05/23 13:48:20;;;;;;;3.00;1.60;;;22.50;47.20;;;;;;8329141;28;20472;-76
2021/05/23 13:52:20;;;;;;;2.73;1.93;;;22.50;45.60;;;;;;8327845;28;20423;-76
2021/05/23 13:56:21;;;;;;;2.27;1.47;;;22.00;45.80;;;;;;8309467;28;20183;-76
2021/05/23 14:00:23;;;;;;;3.43;1.93;;;21.40;46.40;;;;;;8322069;28;20207;-75
2021/05/23 14:04:26;;;;;;;3.80;1.37;;;21.30;46.60;;;;;;8306026;28;20577;-76
2021/05/23 14:08:27;;;;;;;2.30;1.20;;;21.50;47.10;;;;;;8323057;28;20448;-76
2021/05/23 14:12:29;;;;;;;1.13;1.03;;;21.50;47.30;;;;;;8299802;28;20481;-75
2021/05/23 14:16:30;;;;;;;3.50;1.67;;;21.30;47.60;;;;;;8322053;28;20443;-76
2021/05/23 14:20:30;;;;;;;1.53;1.43;;;21.10;48.70;;;;;;8300837;28;20465;-76
2021/05/23 14:24:40;;;;;;;2.60;1.23;;;21.20;49.10;;;;;;8313221;28;20576;-76
2021/05/23 14:28:41;;;;;;;2.33;1.30;;;22.20;48.50;;;;;;8309552;28;20202;-76
2021/05/23 14:32:46;;;;;;;5.07;1.73;;;22.60;46.00;;;;;;8325463;28;20441;-75
2021/05/23 14:36:46;;;;;;;1.10;1.00;;;22.20;46.60;;;;;;8338649;28;20182;-76
2021/05/23 14:40:48;;;;;;;3.90;1.30;;;21.70;47.60;;;;;;8334166;28;20456;-77
2021/05/23 14:44:48;;;;;;;2.80;1.30;;;21.40;47.90;;;;;;8318914;28;20277;-76
2021/05/23 14:48:49;;;;;;;2.90;1.20;;;21.30;48.30;;;;;;8324501;28;20477;-76
2021/05/23 14:52:50;;;;;;;2.07;1.10;;;21.20;47.50;;;;;;8318513;28;20214;-76
2021/05/23 14:56:50;;;;;;;2.00;1.53;;;21.00;47.00;;;;;;8315675;28;20318;-77
2021/05/23 15:00:56;;;;;;;4.93;1.60;;;20.80;47.60;;;;;;8333223;28;20990;-76
2021/05/23 15:04:57;;;;;;;6.90;1.30;;;21.00;48.70;;;;;;8313134;28;20183;-76
2021/05/23 15:08:58;;;;;;;5.27;1.30;;;21.60;48.80;;;;;;8309996;28;20479;-75
2021/05/23 15:12:59;;;;;;;5.10;1.20;;;22.20;47.70;;;;;;8330900;28;20537;-77
2021/05/23 15:16:59;;;;;;;1.40;1.03;;;22.90;47.00;;;;;;8330457;28;20310;-76
2021/05/23 15:21:00;;;;;;;3.03;1.40;;;22.90;46.80;;;;;;8306399;28;20219;-76
2021/05/23 15:25:01;;;;;;;1.60;1.50;;;22.60;46.90;;;;;;8327581;28;20270;-75
2021/05/23 15:33:21;;;;;;;1.57;1.10;;;22.30;47.10;;;;;;8327716;28;20488;-76
2021/05/23 15:37:23;;;;;;;0.87;0.87;;;22.10;46.80;;;;;;8330297;28;20438;-77
2021/05/23 15:41:26;;;;;;;3.83;1.37;;;22.10;45.80;;;;;;8329665;28;20202;-77
2021/05/23 15:45:27;;;;;;;1.50;1.47;;;21.90;45.70;;;;;;8326259;28;20439;-76
2021/05/23 15:49:28;;;;;;;2.67;1.10;;;21.60;45.30;;;;;;8313955;28;20501;-76
2021/05/23 15:53:29;;;;;;;2.43;1.00;;;21.60;45.40;;;;;;8315669;28;20453;-76
2021/05/23 15:57:32;;;;;;;1.90;1.00;;;21.90;44.90;;;;;;8325084;28;20539;-77
2021/05/23 16:01:33;;;;;;;1.73;1.30;;;21.80;44.80;;;;;;8308014;28;20240;-76
2021/05/23 16:05:34;;;;;;;1.30;1.20;;;21.50;44.90;;;;;;8326983;28;20958;-76
2021/05/23 16:09:37;;;;;;;4.50;2.30;;;21.30;44.90;;;;;;8311300;28;20981;-76
2021/05/23 16:13:43;;;;;;;3.23;2.60;;;21.20;45.70;;;;;;8313022;28;20244;-77
2021/05/23 16:17:46;;;;;;;1.50;1.07;;;21.10;45.90;;;;;;8308305;28;20441;-76
2021/05/23 16:21:49;;;;;;;1.13;1.00;;;20.90;46.60;;;;;;8331320;28;21026;-76
2021/05/23 16:25:50;;;;;;;1.57;1.40;;;20.80;46.60;;;;;;8319150;28;20479;-76
2021/05/23 16:29:50;;;;;;;2.30;1.33;;;20.60;47.00;;;;;;8284243;28;20451;-76
2021/05/23 16:33:51;;;;;;;1.47;1.37;;;20.50;47.20;;;;;;8320617;28;20200;-76
2021/05/23 16:37:52;;;;;;;3.03;1.43;;;20.40;47.20;;;;;;8317205;28;20318;-76
2021/05/23 16:41:52;;;;;;;3.40;1.20;;;20.20;46.50;;;;;;8310003;28;20219;-77
2021/05/23 16:45:53;;;;;;;1.70;1.37;;;20.00;47.60;;;;;;8297793;28;20188;-76
2021/05/23 16:49:54;;;;;;;2.90;1.30;;;19.70;47.50;;;;;;8318462;28;20302;-77
2021/05/23 16:53:57;;;;;;;6.77;1.67;;;19.50;47.50;;;;;;8300085;28;20184;-77
2021/05/23 16:58:03;;;;;;;4.73;1.77;;;19.50;48.00;;;;;;8307132;28;20184;-79
2021/05/23 17:02:08;;;;;;;1.30;1.20;;;19.60;48.20;;;;;;8319605;28;20462;-78
2021/05/23 17:06:13;;;;;;;3.37;1.70;;;19.70;48.10;;;;;;8324329;28;20439;-78
2021/05/23 17:10:14;;;;;;;39.97;13.63;;;19.70;48.70;;;;;;8304914;28;21597;-75
2021/05/23 17:14:16;;;;;;;3.63;1.87;;;19.70;48.90;;;;;;8315189;28;20459;-77
2021/05/23 17:18:17;;;;;;;1.87;1.30;;;19.60;49.00;;;;;;8289284;28;20540;-77
2021/05/23 17:22:17;;;;;;;1.50;1.30;;;19.50;49.30;;;;;;8297413;28;20198;-76
2021/05/23 17:26:20;;;;;;;4.03;1.50;;;19.40;50.00;;;;;;8304776;28;20207;-77
2021/05/23 17:30:22;;;;;;;8.73;1.77;;;19.30;49.50;;;;;;8300234;28;20593;-75
2021/05/23 17:34:29;;;;;;;1.70;1.60;;;19.30;49.60;;;;;;8299107;28;20450;-78
2021/05/23 17:38:30;;;;;;;2.37;1.40;;;19.40;47.80;;;;;;8319827;28;20530;-77
2021/05/23 17:42:30;;;;;;;3.73;1.30;;;19.50;48.30;;;;;;8316747;28;20453;-75
2021/05/23 17:46:31;;;;;;;1.77;1.30;;;19.40;48.90;;;;;;8299213;28;20217;-77
2021/05/23 17:50:32;;;;;;;2.10;1.30;;;19.20;48.40;;;;;;8301729;28;20305;-76
2021/05/23 17:54:34;;;;;;;1.63;1.53;;;19.00;48.70;;;;;;8317449;28;20186;-76
2021/05/23 17:58:35;;;;;;;2.03;1.40;;;18.80;50.00;;;;;;8295075;28;20225;-77
2021/05/23 18:02:36;;;;;;;1.63;1.33;;;18.70;49.70;;;;;;8300300;28;20445;-75
2021/05/23 18:06:37;;;;;;;1.40;1.30;;;18.60;49.70;;;;;;8283114;28;20329;-76
2021/05/23 18:10:37;;;;;;;3.37;1.80;;;18.50;50.20;;;;;;8300797;28;20446;-77
2021/05/23 18:14:39;;;;;;;2.43;2.00;;;18.30;50.20;;;;;;8313449;28;21094;-77
2021/05/23 18:18:39;;;;;;;8.13;6.03;;;18.20;50.50;;;;;;8314696;28;22545;-78
2021/05/23 18:22:40;;;;;;;3.70;1.60;;;18.00;50.80;;;;;;8316927;28;20721;-77
2021/05/23 18:26:43;;;;;;;2.03;1.83;;;17.90;51.10;;;;;;8304043;28;20225;-76
2021/05/23 18:30:46;;;;;;;3.50;2.10;;;17.80;51.50;;;;;;8296388;28;20192;-76
2021/05/23 18:34:50;;;;;;;5.53;2.00;;;17.70;51.80;;;;;;8308373;28;20445;-76
2021/05/23 18:38:52;;;;;;;2.20;1.70;;;17.70;52.20;;;;;;8296778;28;20545;-76
2021/05/23 18:42:55;;;;;;;1.97;1.37;;;17.70;51.90;;;;;;8298201;28;20435;-76
2021/05/23 18:46:56;;;;;;;4.80;1.53;;;17.60;51.80;;;;;;8314699;28;20432;-76
2021/05/23 18:50:58;;;;;;;1.63;1.53;;;17.50;52.60;;;;;;8298515;28;20486;-76
2021/05/23 18:54:59;;;;;;;3.23;2.27;;;17.40;53.30;;;;;;8296687;28;20188;-77
2021/05/23 18:58:59;;;;;;;2.70;2.50;;;17.30;53.20;;;;;;8311633;28;20564;-75
2021/05/23 19:03:00;;;;;;;2.40;2.10;;;17.10;53.90;;;;;;8300696;28;20235;-76
2021/05/23 19:07:01;;;;;;;2.17;1.97;;;16.90;54.50;;;;;;8306206;28;20183;-77
2021/05/23 19:11:04;;;;;;;1.77;1.60;;;16.70;55.30;;;;;;8315726;28;20180;-77
2021/05/23 19:15:13;;;;;;;5.83;2.90;;;16.60;55.10;;;;;;8286893;28;20275;-77
2021/05/23 19:19:14;;;;;;;4.30;1.80;;;16.50;55.50;;;;;;8313094;28;20504;-77
2021/05/23 19:23:15;;;;;;;2.40;2.17;;;16.30;55.60;;;;;;8299233;28;20433;-75
2021/05/23 19:27:16;;;;;;;5.40;1.90;;;16.30;56.10;;;;;;8301305;28;20198;-75
2021/05/23 19:31:16;;;;;;;5.93;1.93;;;16.10;56.40;;;;;;8303586;28;20264;-77
2021/05/23 19:35:23;;;;;;;7.70;2.23;;;16.00;56.80;;;;;;8306285;28;20190;-75
2021/05/23 19:39:24;;;;;;;4.50;2.30;;;15.80;57.70;;;;;;8323966;28;20217;-76
2021/05/23 19:43:26;;;;;;;2.70;2.30;;;15.70;57.90;;;;;;8326985;28;20437;-77
2021/05/23 19:47:27;;;;;;;3.13;2.90;;;15.60;58.30;;;;;;8292617;28;20186;-77
2021/05/23 19:51:30;;;;;;;3.03;2.10;;;15.40;59.40;;;;;;8308431;28;20544;-78
2021/05/23 19:55:31;;;;;;;2.13;1.70;;;15.20;58.90;;;;;;8310687;28;20448;-76
2021/05/23 19:59:37;;;;;;;2.20;2.00;;;15.10;60.00;;;;;;8326327;28;20469;-76
2021/05/23 20:03:38;;;;;;;4.50;2.30;;;15.00;59.90;;;;;;8318299;28;20178;-77
2021/05/23 20:07:40;;;;;;;2.57;2.37;;;14.80;60.00;;;;;;8300518;28;20464;-77
2021/05/23 20:11:40;;;;;;;3.37;2.40;;;14.70;60.40;;;;;;8300265;28;21027;-76
2021/05/23 20:15:41;;;;;;;4.60;2.50;;;14.70;61.00;;;;;;8313146;28;21340;-76
2021/05/23 20:19:42;;;;;;;2.50;1.93;;;14.60;61.40;;;;;;8315308;28;20202;-76
2021/05/23 20:23:43;;;;;;;2.50;1.80;;;14.40;61.90;;;;;;8308030;28;20708;-77
2021/05/23 20:27:46;;;;;;;3.40;1.70;;;14.30;62.10;;;;;;8289128;28;20468;-75
2021/05/23 20:31:49;;;;;;;3.00;2.00;;;14.30;62.30;;;;;;8304761;28;20444;-76
2021/05/23 20:35:50;;;;;;;5.10;1.90;;;14.20;63.20;;;;;;8313735;28;20808;-77
2021/05/23 20:39:52;;;;;;;2.30;2.10;;;14.10;63.80;;;;;;8325272;28;21020;-75
2021/05/23 20:43:53;;;;;;;2.00;1.87;;;13.90;64.20;;;;;;8326911;28;20436;-76
2021/05/23 20:47:54;;;;;;;2.93;1.97;;;13.90;64.60;;;;;;8326598;28;20558;-76
2021/05/23 20:51:56;;;;;;;3.17;1.53;;;13.80;65.20;;;;;;8323204;28;20672;-76
2021/05/23 20:55:58;;;;;;;4.40;2.50;;;13.70;65.20;;;;;;8328998;28;20470;-77
2021/05/23 20:59:59;;;;;;;3.23;2.53;;;13.60;65.50;;;;;;8325919;28;20470;-76
2021/05/23 21:04:01;;;;;;;2.03;1.93;;;13.50;66.30;;;;;;8319446;28;20472;-76
2021/05/23 21:08:01;;;;;;;3.10;2.50;;;13.40;67.30;;;;;;8317855;28;20176;-77